Time;durP1;ratioP1;P1;durP2;ratioP2;P2;SDS_P1;SDS_P2;PMS_P1;PMS_P2;Temp;Humidity;BMP_temperature;BMP_pressure;BME280_temperature;BME280_humidity;BME280_pressure;Samples;Min_cycle;Max_cycle;Signal;HPM_P1;HPM_P2
2021/12/26 00:00:33;;;;;;;4.03;2.22;;;;;;;-3.63;82.24;100594.63;2106541;28;20469;-70
2021/12/26 00:01:34;;;;;;;2.70;1.67;;;;;;;-3.60;82.25;100593.81;2106577;28;20027;-69
2021/12/26 00:02:34;;;;;;;5.57;2.42;;;;;;;-3.63;82.71;100598.03;2106596;28;20028;-70
2021/12/26 00:03:35;;;;;;;5.33;2.17;;;;;;;-3.67;82.61;100593.75;2106615;28;20055;-70
2021/12/26 00:04:36;;;;;;;3.33;2.00;;;;;;;-3.68;83.00;100591.16;2106487;28;20016;-70
2021/12/26 00:05:37;;;;;;;3.33;1.75;;;;;;;-3.70;82.07;100598.78;2106473;28;20031;-70
2021/12/26 00:06:37;;;;;;;6.68;2.13;;;;;;;-3.75;83.02;100598.75;2106598;28;20407;-70
2021/12/26 00:07:37;;;;;;;3.57;1.90;;;;;;;-3.77;82.39;100594.44;2106562;28;20016;-70
2021/12/26 00:08:42;;;;;;;5.53;2.50;;;;;;;-3.77;82.22;100602.09;2106566;28;20388;-70
2021/12/26 00:09:43;;;;;;;4.30;2.17;;;;;;;-3.80;82.74;100602.91;2106510;28;20034;-70
2021/12/26 00:10:43;;;;;;;4.28;1.95;;;;;;;-3.83;84.06;100591.84;2106529;28;20062;-70
2021/12/26 00:11:43;;;;;;;6.10;2.30;;;;;;;-3.86;84.63;100599.44;2106493;28;20024;-70
2021/12/26 00:12:44;;;;;;;4.90;2.60;;;;;;;-3.88;85.25;100602.84;2097518;28;20378;-70
2021/12/26 00:13:45;;;;;;;5.07;2.20;;;;;;;-3.93;84.81;100596.78;2089191;28;20377;-70
2021/12/26 00:14:45;;;;;;;5.40;2.22;;;;;;;-3.97;85.54;100591.66;2097442;28;20515;-70
2021/12/26 00:15:46;;;;;;;4.38;2.10;;;;;;;-4.00;85.10;100600.13;2105935;28;20103;-70
2021/12/26 00:16:46;;;;;;;5.43;2.60;;;;;;;-4.00;85.98;100597.56;2106623;28;20031;-70
2021/12/26 00:17:47;;;;;;;3.80;2.07;;;;;;;-4.01;85.70;100593.28;2106570;28;20065;-70
2021/12/26 00:18:47;;;;;;;8.75;2.60;;;;;;;-4.00;84.97;100589.94;2097727;28;20052;-70
2021/12/26 00:19:48;;;;;;;5.47;2.00;;;;;;;-3.99;85.23;100588.22;2099240;28;20444;-70
2021/12/26 00:20:49;;;;;;;4.03;2.20;;;;;;;-4.01;85.74;100589.06;2108202;28;20047;-70
2021/12/26 00:21:49;;;;;;;5.03;2.38;;;;;;;-4.03;86.06;100579.69;2108104;28;20020;-70
2021/12/26 00:22:50;;;;;;;3.63;2.30;;;;;;;-4.02;85.53;100586.47;2108276;28;20031;-69
2021/12/26 00:23:51;;;;;;;5.50;2.47;;;;;;;-4.05;85.83;100587.31;2108175;28;20039;-69
2021/12/26 00:24:52;;;;;;;3.25;2.20;;;;;;;-4.08;86.07;100582.16;2108224;28;20027;-69
2021/12/26 00:25:54;;;;;;;5.47;2.45;;;;;;;-4.10;86.88;100583.84;2099109;28;20017;-69
2021/12/26 00:26:55;;;;;;;5.18;2.33;;;;;;;-4.10;86.25;100588.06;2099257;28;20024;-69
2021/12/26 00:27:55;;;;;;;5.07;2.23;;;;;;;-4.06;85.72;100587.28;2108205;28;20435;-68
2021/12/26 00:28:56;;;;;;;3.97;2.20;;;;;;;-4.07;85.97;100581.31;2108324;28;20020;-70
2021/12/26 00:29:57;;;;;;;4.88;2.22;;;;;;;-4.07;85.23;100575.38;2108237;28;20059;-70
2021/12/26 00:30:58;;;;;;;3.10;2.60;;;;;;;-4.08;85.10;100576.22;2108150;28;20047;-69
2021/12/26 00:31:59;;;;;;;3.53;2.08;;;;;;;-4.09;86.25;100579.59;2108106;28;20473;-70
2021/12/26 00:32:59;;;;;;;6.97;2.50;;;;;;;-4.10;86.88;100573.66;2108156;28;20055;-69
2021/12/26 00:34:00;;;;;;;4.70;2.30;;;;;;;-4.12;86.73;100575.31;2108015;28;20027;-70
2021/12/26 00:35:00;;;;;;;5.10;2.90;;;;;;;-4.13;86.26;100576.97;2108162;28;20109;-70
2021/12/26 00:36:01;;;;;;;5.80;2.92;;;;;;;-4.10;85.92;100570.22;2108160;28;20038;-70
2021/12/26 00:37:02;;;;;;;4.32;2.63;;;;;;;-4.13;86.99;100571.88;2108157;28;20370;-70
2021/12/26 00:38:02;;;;;;;4.73;2.43;;;;;;;-4.15;86.53;100571.03;2108026;28;20074;-71
2021/12/26 00:39:05;;;;;;;4.63;2.38;;;;;;;-4.15;86.59;100571.03;2107992;28;20290;-69
2021/12/26 00:40:07;;;;;;;8.30;2.58;;;;;;;-4.16;86.59;100571.00;2108014;28;20508;-69
2021/12/26 00:41:07;;;;;;;6.60;2.78;;;;;;;-4.17;86.79;100575.22;2108031;28;20112;-69
2021/12/26 00:42:08;;;;;;;4.07;2.20;;;;;;;-4.17;87.05;100572.69;2107319;28;20051;-70
2021/12/26 00:43:09;;;;;;;3.72;2.13;;;;;;;-4.18;87.34;100578.63;2107444;28;20053;-69
2021/12/26 00:44:10;;;;;;;4.63;2.35;;;;;;;-4.20;87.33;100572.66;2107937;28;20020;-69
2021/12/26 00:45:10;;;;;;;3.38;2.28;;;;;;;-4.19;86.42;100569.28;2107961;28;20034;-69
2021/12/26 00:46:11;;;;;;;4.20;3.07;;;;;;;-4.15;86.03;100573.56;2107985;28;20520;-69
2021/12/26 00:47:12;;;;;;;5.70;2.60;;;;;;;-4.13;85.67;100574.44;2107856;28;20677;-69
2021/12/26 00:48:12;;;;;;;;;;;;;;;-4.11;86.42;100573.63;2108325;28;20422;-68
2021/12/26 00:49:13;;;;;;;4.07;2.10;;;;;;;-4.13;86.32;100566.78;2107870;28;19908;-69
2021/12/26 00:50:16;;;;;;;5.33;2.30;;;;;;;-4.15;86.01;100565.06;2107860;28;20168;-69
2021/12/26 00:51:17;;;;;;;4.90;2.35;;;;;;;-4.16;85.92;100566.78;2107960;28;20048;-70
2021/12/26 00:52:17;;;;;;;6.35;2.35;;;;;;;-4.18;85.98;100570.97;2107881;28;20023;-69
2021/12/26 00:53:17;;;;;;;4.67;2.70;;;;;;;-4.20;86.50;100575.22;2107884;28;20054;-70
2021/12/26 00:54:20;;;;;;;6.17;2.70;;;;;;;-4.20;85.91;100569.25;2107847;28;20492;-69
2021/12/26 00:55:20;;;;;;;4.53;2.42;;;;;;;-4.17;85.93;100577.78;2107840;28;20386;-70
2021/12/26 00:56:21;;;;;;;5.83;2.67;;;;;;;-4.16;85.23;100574.41;2107951;28;20027;-70
2021/12/26 00:57:21;;;;;;;4.10;2.63;;;;;;;-4.13;85.68;100574.44;2107891;28;20057;-70
2021/12/26 00:58:21;;;;;;;5.27;2.53;;;;;;;-4.10;86.36;100575.31;2107707;28;20024;-70
2021/12/26 00:59:23;;;;;;;7.40;3.23;;;;;;;-4.07;86.90;100577.94;2107871;28;20024;-70
2021/12/26 01:00:28;;;;;;;6.53;2.67;;;;;;;-4.04;86.39;100572.88;2107848;28;20032;-69
2021/12/26 01:01:28;;;;;;;6.18;2.67;;;;;;;-3.97;86.91;100576.34;2098803;28;20035;-69
2021/12/26 01:02:28;;;;;;;5.90;2.73;;;;;;;-3.91;87.25;100574.75;2098809;28;20387;-70
2021/12/26 01:03:29;;;;;;;5.00;2.57;;;;;;;-3.88;87.11;100577.34;2098857;28;20038;-69
2021/12/26 01:04:29;;;;;;;6.90;2.57;;;;;;;-3.83;86.43;100576.53;2107834;28;20036;-70
2021/12/26 01:05:32;;;;;;;3.60;2.13;;;;;;;-3.79;87.05;100578.28;2107809;28;20059;-69
2021/12/26 01:06:33;;;;;;;5.60;2.30;;;;;;;-3.75;85.62;100582.59;2107828;28;20051;-70
2021/12/26 01:08:47;;;;;;;4.65;2.40;;;;;;;-3.67;86.64;100575.88;2107949;28;20035;-71
2021/12/26 01:09:51;;;;;;;4.07;2.30;;;;;;;-3.63;86.00;100579.31;2107713;28;20028;-70
2021/12/26 01:11:01;;;;;;;4.68;2.38;;;;;;;-3.59;84.83;100581.09;2107711;28;20111;-70
2021/12/26 01:12:11;;;;;;;5.35;2.53;;;;;;;-3.55;84.71;100582.84;2107704;28;20032;-70
2021/12/26 01:13:19;;;;;;;6.18;2.50;;;;;;;-3.51;84.14;100584.59;2107906;28;20018;-69
2021/12/26 01:14:26;;;;;;;6.53;2.30;;;;;;;-3.47;82.66;100582.03;2107682;28;20024;-70
2021/12/26 01:15:27;;;;;;;5.95;2.33;;;;;;;-3.44;82.13;100580.41;2107667;28;20039;-70
2021/12/26 01:16:28;;;;;;;5.07;3.40;;;;;;;-3.40;81.77;100582.16;2107754;28;20027;-70
2021/12/26 01:17:29;;;;;;;6.40;2.60;;;;;;;-3.37;82.39;100586.41;2098793;28;20279;-70
2021/12/26 01:18:34;;;;;;;5.05;2.63;;;;;;;-3.35;81.86;100584.75;2098899;28;20024;-70
2021/12/26 01:19:43;;;;;;;5.50;2.47;;;;;;;-3.32;81.78;100583.94;2107837;28;20495;-71
2021/12/26 01:21:03;;;;;;;7.47;2.63;;;;;;;-3.31;80.97;100581.41;2098725;28;20066;-71
2021/12/26 01:22:03;;;;;;;4.20;2.38;;;;;;;-3.28;81.13;100578.03;2101436;28;20108;-71
2021/12/26 01:23:03;;;;;;;7.23;3.73;;;;;;;-3.26;80.62;100578.88;2107661;28;20465;-70
2021/12/26 01:24:10;;;;;;;12.50;3.50;;;;;;;-3.24;81.42;100577.22;2107663;28;20107;-69
2021/12/26 01:25:11;;;;;;;6.03;2.90;;;;;;;-3.23;81.00;100576.34;2107745;28;20024;-70
2021/12/26 01:26:11;;;;;;;7.53;2.50;;;;;;;-3.21;81.30;100567.03;2107725;28;20065;-69
2021/12/26 01:27:11;;;;;;;5.03;2.70;;;;;;;-3.20;81.44;100572.97;2107443;28;20044;-70
2021/12/26 01:28:12;;;;;;;6.07;3.27;;;;;;;-3.19;81.09;100569.59;2107607;28;20032;-69
2021/12/26 01:29:12;;;;;;;4.88;2.90;;;;;;;-3.17;81.10;100571.31;2107905;28;20070;-70
2021/12/26 01:30:13;;;;;;;4.67;2.83;;;;;;;-3.16;81.91;100573.03;2098365;28;20094;-71
2021/12/26 01:31:19;;;;;;;6.80;2.53;;;;;;;-3.19;80.75;100570.44;2098188;28;20423;-70
2021/12/26 01:32:20;;;;;;;5.82;2.72;;;;;;;-3.17;80.72;100566.22;2107776;28;20020;-69
2021/12/26 01:33:20;;;;;;;4.30;2.72;;;;;;;-3.14;80.84;100573.06;2107717;28;20028;-70
2021/12/26 01:34:21;;;;;;;3.03;1.77;;;;;;;-3.14;80.87;100573.91;2107765;28;20082;-70
2021/12/26 01:35:21;;;;;;;5.50;2.63;;;;;;;-3.12;82.13;100568.78;2107502;28;20282;-70
2021/12/26 01:36:22;;;;;;;6.85;2.50;;;;;;;-3.13;81.29;100560.31;2107630;28;20447;-69
2021/12/26 01:37:22;;;;;;;5.80;2.45;;;;;;;-3.13;81.31;100564.53;2107593;28;20032;-70
2021/12/26 01:38:23;;;;;;;4.47;2.50;;;;;;;-3.12;80.86;100564.56;2107483;28;20024;-70
2021/12/26 01:39:24;;;;;;;6.15;2.60;;;;;;;-3.12;80.90;100567.13;2107496;28;20062;-70
2021/12/26 01:40:24;;;;;;;7.53;3.27;;;;;;;-3.11;80.45;100560.31;2107585;28;20477;-70
2021/12/26 01:41:26;;;;;;;7.37;3.23;;;;;;;-3.11;80.53;100563.72;2107565;28;20301;-70
2021/12/26 01:42:27;;;;;;;3.75;2.05;;;;;;;-3.12;80.39;100567.13;2098480;28;20024;-70
2021/12/26 01:43:30;;;;;;;4.60;2.47;;;;;;;-3.11;80.41;100568.81;2098574;28;20433;-70
2021/12/26 01:44:33;;;;;;;5.28;2.58;;;;;;;-3.09;79.84;100560.34;2098483;28;20029;-70
2021/12/26 01:45:34;;;;;;;5.30;2.33;;;;;;;-3.08;80.32;100567.16;2098882;28;20070;-70
2021/12/26 01:46:34;;;;;;;8.13;2.97;;;;;;;-3.08;79.85;100567.16;2098428;28;20044;-70
2021/12/26 01:47:35;;;;;;;5.07;2.47;;;;;;;-3.08;80.42;100562.03;2098490;28;20029;-70
2021/12/26 01:48:35;;;;;;;4.60;2.33;;;;;;;-3.06;80.97;100560.34;2107536;28;20012;-70
2021/12/26 01:49:36;;;;;;;4.90;2.30;;;;;;;-3.06;81.35;100558.66;2107411;28;20024;-70
2021/12/26 01:50:37;;;;;;;8.38;2.17;;;;;;;-3.06;81.05;100557.78;2107458;28;20023;-71
2021/12/26 01:51:38;;;;;;;4.30;2.25;;;;;;;-3.05;81.03;100556.97;2107443;28;20065;-70
2021/12/26 01:52:38;;;;;;;6.43;2.58;;;;;;;-3.04;80.41;100556.13;2107438;28;20043;-70
2021/12/26 01:53:40;;;;;;;5.60;2.17;;;;;;;-3.01;80.71;100553.59;2107442;28;20020;-70
2021/12/26 01:54:47;;;;;;;5.05;2.38;;;;;;;-3.01;80.89;100558.72;2107394;28;20069;-70
2021/12/26 01:55:47;;;;;;;4.95;2.45;;;;;;;-3.01;80.24;100558.72;2107508;28;20024;-69
2021/12/26 01:56:47;;;;;;;7.03;3.30;;;;;;;-2.99;80.36;100567.22;2107457;28;20047;-70
2021/12/26 01:57:51;;;;;;;5.50;2.70;;;;;;;-2.97;80.50;100556.19;2107479;28;20388;-70
2021/12/26 01:58:52;;;;;;;6.07;2.42;;;;;;;-2.95;80.59;100563.84;2098292;28;20034;-71
2021/12/26 01:59:52;;;;;;;5.35;2.35;;;;;;;-2.95;79.98;100558.75;2098514;28;20025;-70
2021/12/26 02:01:05;;;;;;;3.58;2.42;;;;;;;-2.93;80.41;100561.31;2107407;28;20518;-70
2021/12/26 02:02:09;;;;;;;4.70;2.75;;;;;;;-2.93;80.23;100557.06;2107225;28;20035;-70
2021/12/26 02:03:10;;;;;;;6.03;3.13;;;;;;;-2.91;80.66;100565.59;2107381;28;20052;-70
2021/12/26 02:04:11;;;;;;;7.15;3.42;;;;;;;-2.90;81.07;100571.56;2107362;28;20024;-70
2021/12/26 02:05:12;;;;;;;11.93;3.05;;;;;;;-2.89;81.34;100563.06;2107381;28;20050;-69
2021/12/26 02:06:12;;;;;;;6.95;3.67;;;;;;;-2.88;80.10;100565.63;2107302;28;20096;-70
2021/12/26 02:07:13;;;;;;;5.80;3.27;;;;;;;-2.90;79.64;100562.22;2098282;28;20026;-70
2021/12/26 02:08:14;;;;;;;5.00;2.70;;;;;;;-2.88;79.99;100568.19;2098444;28;20028;-70
2021/12/26 02:09:14;;;;;;;5.03;2.47;;;;;;;-2.87;80.06;100564.78;2107315;28;20040;-69
2021/12/26 02:10:15;;;;;;;4.50;2.90;;;;;;;-2.88;79.16;100557.97;2107332;28;20160;-70
2021/12/26 02:11:16;;;;;;;5.97;3.25;;;;;;;-2.88;80.23;100555.41;2107235;28;20278;-70
2021/12/26 02:12:16;;;;;;;6.13;3.55;;;;;;;-2.89;79.77;100558.81;2107322;28;20039;-70
2021/12/26 02:13:17;;;;;;;6.57;2.77;;;;;;;-2.90;80.75;100549.44;2107330;28;20429;-70
2021/12/26 02:14:18;;;;;;;5.88;2.85;;;;;;;-2.87;80.09;100557.09;2098188;28;20056;-71
2021/12/26 02:15:18;;;;;;;5.53;2.78;;;;;;;-2.86;79.79;100556.28;2098274;28;20029;-71
2021/12/26 02:16:19;;;;;;;5.68;3.33;;;;;;;-2.84;80.23;100551.19;2098325;28;20035;-70
2021/12/26 02:17:19;;;;;;;7.67;3.20;;;;;;;-2.83;79.56;100562.25;2098382;28;20017;-70
2021/12/26 02:18:20;;;;;;;4.47;2.57;;;;;;;-2.85;79.70;100555.44;2107217;28;20107;-70
2021/12/26 02:19:20;;;;;;;7.55;3.10;;;;;;;-2.85;79.59;100554.56;2098248;28;20413;-70
2021/12/26 02:20:29;;;;;;;5.87;2.90;;;;;;;-2.86;78.63;100558.84;2098131;28;20089;-70
2021/12/26 02:21:58;;;;;;;5.75;2.70;;;;;;;-2.83;79.40;100562.25;2099419;28;20442;-70
2021/12/26 02:23:02;;;;;;;4.93;2.95;;;;;;;-2.82;80.34;100553.75;2107040;28;20489;-70
2021/12/26 02:24:22;;;;;;;4.35;2.75;;;;;;;-2.80;80.09;100564.84;2098185;28;20119;-70
2021/12/26 02:25:32;;;;;;;5.88;2.50;;;;;;;-2.81;80.39;100555.47;2101138;28;20024;-69
2021/12/26 02:27:51;;;;;;;5.03;2.63;;;;;;;-2.80;79.86;100552.94;2100822;28;20036;-70
2021/12/26 02:28:51;;;;;;;4.93;3.13;;;;;;;-2.79;79.66;100558.88;2107193;28;20457;-70
2021/12/26 02:29:52;;;;;;;6.10;2.80;;;;;;;-2.77;80.56;100552.09;2107139;28;20031;-70
2021/12/26 02:30:55;;;;;;;7.00;3.17;;;;;;;-2.78;79.98;100550.38;2107124;28;20500;-70
2021/12/26 02:31:55;;;;;;;8.18;3.15;;;;;;;-2.76;79.94;100547.00;2098032;28;20059;-70
2021/12/26 02:32:59;;;;;;;5.90;3.07;;;;;;;-2.76;80.69;100543.59;2098177;28;20040;-69
2021/12/26 02:34:00;;;;;;;6.90;2.75;;;;;;;-2.77;79.96;100552.09;2097988;28;20024;-70
2021/12/26 02:35:01;;;;;;;8.70;3.13;;;;;;;-2.77;80.21;100547.00;2098139;28;20054;-70
2021/12/26 02:36:02;;;;;;;7.63;3.70;;;;;;;-2.77;80.09;100541.88;2107073;28;20063;-70
2021/12/26 02:37:03;;;;;;;6.45;3.33;;;;;;;-2.79;79.47;100546.09;2107104;28;20389;-70
2021/12/26 02:38:05;;;;;;;6.68;3.17;;;;;;;-2.78;80.73;100540.16;2097938;28;20025;-70
2021/12/26 02:39:06;;;;;;;5.57;2.70;;;;;;;-2.76;80.63;100543.59;2098301;28;20139;-69
2021/12/26 02:40:07;;;;;;;3.58;2.55;;;;;;;-2.76;80.63;100535.91;2098007;28;20054;-69
2021/12/26 02:41:07;;;;;;;4.30;2.33;;;;;;;-2.76;79.74;100541.03;2098182;28;20032;-70
2021/12/26 02:42:07;;;;;;;4.50;2.70;;;;;;;-2.76;80.09;100536.78;2097828;28;20062;-70
2021/12/26 02:43:09;;;;;;;7.07;2.80;;;;;;;-2.74;80.44;100536.81;2097961;28;20040;-70
2021/12/26 02:44:09;;;;;;;5.22;2.80;;;;;;;-2.74;80.76;100536.81;2089651;28;20032;-70
2021/12/26 02:45:09;;;;;;;5.03;2.47;;;;;;;-2.73;80.80;100533.41;2094339;28;20020;-70
2021/12/26 02:46:10;;;;;;;4.67;2.90;;;;;;;-2.74;80.43;100536.81;2097865;28;20507;-70
2021/12/26 02:47:10;;;;;;;4.20;2.70;;;;;;;-2.76;80.03;100534.22;2098095;28;20035;-70
2021/12/26 02:48:12;;;;;;;5.80;3.10;;;;;;;-2.75;79.79;100529.97;2106831;28;20047;-71
2021/12/26 02:49:12;;;;;;;6.63;2.85;;;;;;;-2.73;80.50;100541.06;2097917;28;20020;-70
2021/12/26 02:50:20;;;;;;;5.07;3.20;;;;;;;-2.77;79.52;100537.59;2097961;28;20095;-70
2021/12/26 02:51:20;;;;;;;5.22;3.15;;;;;;;-2.76;79.95;100541.03;2106459;28;20105;-70
2021/12/26 02:52:21;;;;;;;4.23;2.60;;;;;;;-2.75;80.25;100542.72;2106847;28;20020;-70
2021/12/26 02:53:22;;;;;;;6.43;2.53;;;;;;;-2.75;78.76;100535.06;2106919;28;20274;-70
2021/12/26 02:54:25;;;;;;;6.28;2.75;;;;;;;-2.76;78.80;100541.91;2106333;28;20023;-70
2021/12/26 02:55:26;;;;;;;6.40;3.28;;;;;;;-2.74;80.04;100536.81;2106405;28;20051;-70
2021/12/26 02:56:26;;;;;;;5.78;3.40;;;;;;;-2.73;80.35;100535.94;2106948;28;20032;-70
2021/12/26 02:57:27;;;;;;;7.73;3.23;;;;;;;-2.71;79.96;100541.91;2106961;28;20028;-70
2021/12/26 02:58:28;;;;;;;5.03;2.45;;;;;;;-2.72;80.01;100535.09;2106855;28;20059;-69
2021/12/26 02:59:31;;;;;;;7.10;3.25;;;;;;;-2.71;79.97;100541.91;2106733;28;20107;-69
2021/12/26 03:00:41;;;;;;;4.93;2.67;;;;;;;-2.70;80.04;100541.09;2097808;28;20450;-70
2021/12/26 03:01:41;;;;;;;5.93;3.58;;;;;;;-2.69;79.58;100540.25;2090744;28;20033;-70
2021/12/26 03:02:45;;;;;;;4.93;2.77;;;;;;;-2.67;79.69;100537.69;2097923;28;20017;-70
2021/12/26 03:03:45;;;;;;;7.25;2.80;;;;;;;-2.67;79.49;100543.63;2106853;28;20026;-70
2021/12/26 03:04:45;;;;;;;4.20;2.77;;;;;;;-2.68;79.33;100536.84;2106901;28;20058;-71
2021/12/26 03:05:53;;;;;;;5.77;2.97;;;;;;;-2.68;80.15;100536.84;2106851;28;20040;-70
2021/12/26 03:07:03;;;;;;;6.50;2.88;;;;;;;-2.70;79.96;100538.53;2106866;28;20023;-69
2021/12/26 03:08:05;;;;;;;6.25;3.50;;;;;;;-2.70;80.80;100538.53;2106874;28;20030;-69
2021/12/26 03:09:06;;;;;;;5.97;3.13;;;;;;;-2.72;79.86;100535.97;2106715;28;20039;-69
2021/12/26 03:10:10;;;;;;;4.55;2.63;;;;;;;-2.70;80.77;100542.78;2106787;28;20376;-69
2021/12/26 03:11:11;;;;;;;5.07;2.55;;;;;;;-2.72;79.76;100540.22;2106750;28;20393;-70
2021/12/26 03:12:12;;;;;;;7.50;3.53;;;;;;;-2.72;79.76;100540.22;2106743;28;20020;-70
2021/12/26 03:13:14;;;;;;;6.50;2.97;;;;;;;-2.72;80.07;100542.75;2106760;28;20067;-69
2021/12/26 03:14:14;;;;;;;6.43;3.00;;;;;;;-2.72;81.23;100542.75;2106754;28;20109;-69
2021/12/26 03:15:14;;;;;;;8.53;3.37;;;;;;;-2.74;80.76;100531.69;2106815;28;20101;-69
2021/12/26 03:16:15;;;;;;;7.00;2.97;;;;;;;-2.76;79.52;100533.38;2097734;28;20031;-69
2021/12/26 03:17:15;;;;;;;9.60;3.95;;;;;;;-2.80;79.81;100537.59;2097776;28;20051;-69
2021/12/26 03:18:16;;;;;;;7.60;3.37;;;;;;;-2.80;81.09;100535.06;2106738;28;20049;-70
2021/12/26 03:19:16;;;;;;;5.63;3.42;;;;;;;-2.85;80.90;100527.34;2106771;28;20084;-70
2021/12/26 03:20:21;;;;;;;6.10;3.13;;;;;;;-2.87;80.48;100526.47;2097772;28;20070;-69
2021/12/26 03:21:22;;;;;;;5.63;3.75;;;;;;;-2.90;80.25;100529.00;2098264;28;20467;-70
2021/12/26 03:22:25;;;;;;;6.70;2.93;;;;;;;-2.94;80.35;100522.16;2106882;28;20016;-70
2021/12/26 03:23:27;;;;;;;7.43;3.47;;;;;;;-2.98;80.61;100522.97;2097671;28;20036;-70
2021/12/26 03:24:27;;;;;;;7.13;3.25;;;;;;;-3.02;80.84;100516.13;2097904;28;20020;-70
2021/12/26 03:25:29;;;;;;;7.00;3.03;;;;;;;-3.07;81.05;100517.78;2106160;28;20516;-70
2021/12/26 03:26:29;;;;;;;6.65;2.92;;;;;;;-3.12;81.31;100510.94;2106144;28;20051;-70
2021/12/26 03:27:30;;;;;;;7.07;3.00;;;;;;;-3.17;80.92;100512.63;2106544;28;20044;-70
2021/12/26 03:28:31;;;;;;;6.53;3.10;;;;;;;-3.21;81.48;100510.88;2106705;28;20020;-70
2021/12/26 03:29:32;;;;;;;5.30;2.95;;;;;;;-3.24;81.17;100509.13;2106758;28;20024;-70
2021/12/26 03:30:34;;;;;;;;;;;;;;;-3.25;81.65;100506.59;2107096;28;20027;-70
2021/12/26 03:31:34;;;;;;;6.25;3.33;;;;;;;-3.30;82.48;100503.97;2097626;28;19909;-70
2021/12/26 03:32:34;;;;;;;5.37;2.80;;;;;;;-3.34;82.84;100504.78;2097781;28;20111;-70
2021/12/26 03:33:35;;;;;;;6.10;3.10;;;;;;;-3.38;83.02;100506.44;2106647;28;20036;-70
2021/12/26 03:34:35;;;;;;;4.87;2.60;;;;;;;-3.42;83.58;100507.25;2106680;28;20538;-70
2021/12/26 03:35:36;;;;;;;6.97;3.50;;;;;;;-3.44;83.98;100511.50;2106804;28;20108;-70
2021/12/26 03:36:36;;;;;;;6.65;3.50;;;;;;;-3.47;84.02;100513.16;2106556;28;20062;-72
2021/12/26 03:37:39;;;;;;;6.30;3.20;;;;;;;-3.51;83.62;100513.16;2106789;28;20012;-70
2021/12/26 03:38:40;;;;;;;5.28;2.63;;;;;;;-3.53;84.30;100513.94;2097598;28;20107;-70
2021/12/26 03:39:40;;;;;;;5.37;2.93;;;;;;;-3.57;84.38;100513.06;2097747;28;20070;-70
2021/12/26 03:40:41;;;;;;;7.03;2.97;;;;;;;-3.58;83.85;100516.47;2097769;28;20067;-70
2021/12/26 03:41:41;;;;;;;3.90;2.50;;;;;;;-3.58;84.31;100516.47;2106585;28;20408;-70
2021/12/26 03:42:42;;;;;;;8.17;3.30;;;;;;;-3.63;84.40;100513.84;2106055;28;20023;-70
2021/12/26 03:43:43;;;;;;;4.25;2.63;;;;;;;-3.67;84.54;100507.00;2097628;28;20095;-70
2021/12/26 03:44:43;;;;;;;5.17;2.60;;;;;;;-3.67;84.37;100516.34;2089436;28;20075;-70
2021/12/26 03:45:48;;;;;;;5.73;3.47;;;;;;;-3.68;84.60;100515.50;2097750;28;20493;-70
2021/12/26 03:46:48;;;;;;;5.07;3.28;;;;;;;-3.69;83.68;100513.81;2106733;28;20076;-71
2021/12/26 03:47:50;;;;;;;6.63;2.97;;;;;;;-3.69;83.14;100513.81;2106699;28;20046;-71
2021/12/26 03:48:50;;;;;;;;;;;;;;;-3.68;82.96;100515.50;2107060;28;20040;-70
2021/12/26 03:49:52;;;;;;;5.85;2.58;;;;;;;-3.71;84.19;100520.56;2106608;28;19961;-70
2021/12/26 03:50:54;;;;;;;6.20;2.17;;;;;;;-3.76;84.66;100522.22;2106693;28;20020;-70
2021/12/26 03:51:54;;;;;;;4.03;2.30;;;;;;;-3.79;84.37;100517.06;2106667;28;20024;-69
2021/12/26 03:52:57;;;;;;;5.07;2.70;;;;;;;-3.82;84.98;100517.03;2106708;28;20377;-69
2021/12/26 03:53:57;;;;;;;5.85;3.08;;;;;;;-3.84;84.76;100518.72;2106214;28;20129;-70
2021/12/26 03:54:57;;;;;;;4.47;2.00;;;;;;;-3.90;85.01;100520.34;2106649;28;20069;-70
2021/12/26 03:55:58;;;;;;;6.23;2.93;;;;;;;-3.93;85.66;100515.19;2106813;28;20024;-69
2021/12/26 03:56:58;;;;;;;5.00;3.00;;;;;;;-3.94;86.30;100518.59;2106590;28;20022;-69
2021/12/26 03:57:59;;;;;;;5.27;2.90;;;;;;;-3.93;85.16;100515.19;2106523;28;20036;-70
2021/12/26 03:58:59;;;;;;;5.63;2.33;;;;;;;-3.90;85.14;100520.34;2106471;28;20044;-70
2021/12/26 04:00:00;;;;;;;5.97;2.87;;;;;;;-3.95;86.14;100511.78;2106411;28;20028;-70
2021/12/26 04:01:00;;;;;;;6.15;2.80;;;;;;;-3.97;85.21;100513.44;2106533;28;20389;-70
2021/12/26 04:02:01;;;;;;;6.35;3.30;;;;;;;-3.95;84.95;100513.47;2097637;28;20032;-70
2021/12/26 04:03:01;;;;;;;6.07;3.17;;;;;;;-3.95;84.58;100511.78;2097709;28;20029;-70
2021/12/26 04:04:01;;;;;;;4.50;3.30;;;;;;;-3.96;84.55;100506.66;2106649;28;20130;-70
2021/12/26 04:05:02;;;;;;;6.23;2.90;;;;;;;-3.96;84.11;100515.19;2106745;28;20396;-69
2021/12/26 04:06:03;;;;;;;4.93;2.95;;;;;;;-3.98;84.79;100509.19;2106642;28;20062;-71
2021/12/26 04:07:03;;;;;;;4.50;3.37;;;;;;;-4.02;85.04;100510.88;2106639;28;20024;-70
2021/12/26 04:08:04;;;;;;;6.43;3.10;;;;;;;-4.04;85.33;100507.44;2097581;28;20771;-70
2021/12/26 04:09:07;;;;;;;6.30;3.00;;;;;;;-4.07;86.20;100506.56;2089285;28;20033;-70
2021/12/26 04:10:08;;;;;;;6.18;2.55;;;;;;;-4.09;85.76;100508.22;2097992;28;20094;-70
2021/12/26 04:11:08;;;;;;;3.80;2.22;;;;;;;-4.10;85.40;100511.59;2106570;28;20039;-69
2021/12/26 04:12:09;;;;;;;7.83;3.53;;;;;;;-4.10;85.85;100509.06;2106363;28;20028;-70
2021/12/26 04:13:09;;;;;;;4.90;3.00;;;;;;;-4.11;85.58;100500.53;2106561;28;20039;-70
2021/12/26 04:14:10;;;;;;;6.00;3.73;;;;;;;-4.11;85.36;100502.25;2106596;28;20041;-70
2021/12/26 04:15:12;;;;;;;7.45;3.20;;;;;;;-4.12;86.32;100501.38;2106532;28;20028;-70
2021/12/26 04:16:12;;;;;;;8.25;3.33;;;;;;;-4.14;86.15;100503.91;2106544;28;20537;-70
2021/12/26 04:17:12;;;;;;;4.53;2.70;;;;;;;-4.11;85.25;100499.69;2106539;28;20020;-70
2021/12/26 04:18:13;;;;;;;6.77;2.70;;;;;;;-4.11;84.83;100504.81;2106475;28;20028;-69
2021/12/26 04:19:14;;;;;;;5.45;2.60;;;;;;;-4.13;85.06;100502.22;2106509;28;20103;-69
2021/12/26 04:20:14;;;;;;;4.85;2.67;;;;;;;-4.17;85.52;100496.22;2097495;28;20027;-69
2021/12/26 04:21:15;;;;;;;8.33;2.83;;;;;;;-4.21;85.91;100507.22;2097694;28;20052;-69
2021/12/26 04:22:15;;;;;;;4.60;2.67;;;;;;;-4.24;86.08;100513.97;2097636;28;20025;-69
2021/12/26 04:23:15;;;;;;;5.43;3.00;;;;;;;-4.28;87.01;100507.97;2097525;28;20024;-71
2021/12/26 04:24:16;;;;;;;5.77;3.03;;;;;;;-4.28;86.86;100502.88;2105886;28;20036;-70
2021/12/26 04:25:19;;;;;;;4.45;2.70;;;;;;;-4.25;86.77;100513.09;2106440;28;20074;-69
2021/12/26 04:26:19;;;;;;;4.78;2.38;;;;;;;-4.27;87.32;100509.69;2097507;28;20028;-70
2021/12/26 04:27:21;;;;;;;4.00;2.70;;;;;;;-4.28;87.05;100510.50;2089056;28;20049;-70
2021/12/26 04:28:22;;;;;;;4.05;2.15;;;;;;;-4.29;86.57;100507.13;2097799;28;20096;-69
2021/12/26 04:29:22;;;;;;;4.03;2.40;;;;;;;-4.31;87.22;100503.69;2106521;28;20035;-69
2021/12/26 04:30:23;;;;;;;4.50;2.67;;;;;;;-4.31;86.94;100502.84;2106554;28;20024;-70
2021/12/26 04:31:23;;;;;;;5.65;3.30;;;;;;;-4.30;87.17;100502.00;2106514;28;20089;-70
2021/12/26 04:32:24;;;;;;;5.03;2.50;;;;;;;-4.31;86.44;100500.31;2106497;28;20032;-70
2021/12/26 04:33:24;;;;;;;7.85;2.90;;;;;;;-4.33;87.20;100504.50;2106559;28;20028;-70
2021/12/26 04:34:25;;;;;;;7.60;4.57;;;;;;;-4.33;87.66;100499.41;2097495;28;20025;-70
2021/12/26 04:35:25;;;;;;;7.13;3.70;;;;;;;-4.37;88.52;100501.06;2097566;28;20067;-70
2021/12/26 04:36:25;;;;;;;5.93;2.77;;;;;;;-4.39;88.22;100505.28;2106470;28;20069;-70
2021/12/26 04:37:26;;;;;;;4.43;2.77;;;;;;;-4.43;88.31;100504.38;2106368;28;20034;-69
2021/12/26 04:38:26;;;;;;;8.30;3.40;;;;;;;-4.45;88.65;100500.94;2097406;28;20021;-69
2021/12/26 04:39:26;;;;;;;5.43;3.03;;;;;;;-4.47;88.56;100497.53;2097597;28;20032;-70
2021/12/26 04:40:27;;;;;;;6.40;2.57;;;;;;;-4.46;88.69;100499.25;2106458;28;20022;-69
2021/12/26 04:41:27;;;;;;;5.28;2.70;;;;;;;-4.46;88.71;100499.25;2106090;28;20024;-69
2021/12/26 04:42:28;;;;;;;5.50;3.27;;;;;;;-4.44;88.22;100497.59;2106501;28;20028;-69
2021/12/26 04:43:29;;;;;;;6.63;3.08;;;;;;;-4.43;87.49;100499.28;2106573;28;20071;-69
2021/12/26 04:44:29;;;;;;;5.35;2.47;;;;;;;-4.43;88.87;100499.28;2097429;28;20036;-70
2021/12/26 04:45:30;;;;;;;5.43;2.60;;;;;;;-4.44;88.51;100499.28;2097469;28;20485;-71
2021/12/26 04:46:30;;;;;;;5.67;2.80;;;;;;;-4.44;89.08;100496.72;2105740;28;20057;-70
2021/12/26 04:47:30;;;;;;;5.30;2.70;;;;;;;-4.46;89.85;100494.16;2105967;28;20024;-70
2021/12/26 04:48:32;;;;;;;4.47;2.70;;;;;;;-4.49;89.52;100494.09;2106510;28;20360;-70
2021/12/26 04:49:32;;;;;;;7.55;2.95;;;;;;;-4.52;90.08;100499.16;2097285;28;20054;-69